sensor_id;sensor_type;location;lat;lon;timestamp;P1;durP1;ratioP1;P2;durP2;ratioP2
17650;SDS011;26663;59.302;18.082;2024-02-28T00:00:25;5.20;;;4.87;;
17650;SDS011;26663;59.302;18.082;2024-02-28T00:03:29;5.30;;;5.00;;
17650;SDS011;26663;59.302;18.082;2024-02-28T00:06:34;5.63;;;5.23;;
17650;SDS011;26663;59.302;18.082;2024-02-28T00:09:39;5.53;;;5.03;;
17650;SDS011;26663;59.302;18.082;2024-02-28T00:12:43;5.17;;;4.80;;
17650;SDS011;26663;59.302;18.082;2024-02-28T00:15:47;5.50;;;5.00;;
17650;SDS011;26663;59.302;18.082;2024-02-28T00:42:02;4.23;;;3.97;;
17650;SDS011;26663;59.302;18.082;2024-02-28T00:45:07;4.43;;;4.13;;
17650;SDS011;26663;59.302;18.082;2024-02-28T00:48:12;4.57;;;4.27;;
17650;SDS011;26663;59.302;18.082;2024-02-28T00:51:16;4.63;;;4.33;;
17650;SDS011;26663;59.302;18.082;2024-02-28T00:54:20;4.43;;;4.23;;
17650;SDS011;26663;59.302;18.082;2024-02-28T00:57:27;4.70;;;4.33;;
17650;SDS011;26663;59.302;18.082;2024-02-28T01:00:32;4.23;;;4.03;;
17650;SDS011;26663;59.302;18.082;2024-02-28T01:03:36;3.70;;;3.60;;
17650;SDS011;26663;59.302;18.082;2024-02-28T01:06:40;4.60;;;4.30;;
17650;SDS011;26663;59.302;18.082;2024-02-28T01:09:44;5.17;;;4.80;;
17650;SDS011;26663;59.302;18.082;2024-02-28T01:12:49;4.23;;;4.00;;
17650;SDS011;26663;59.302;18.082;2024-02-28T01:15:53;4.47;;;4.27;;
17650;SDS011;26663;59.302;18.082;2024-02-28T01:18:57;4.17;;;3.97;;
17650;SDS011;26663;59.302;18.082;2024-02-28T01:22:01;4.17;;;3.97;;
17650;SDS011;26663;59.302;18.082;2024-02-28T01:25:05;4.37;;;4.17;;
17650;SDS011;26663;59.302;18.082;2024-02-28T01:28:11;4.30;;;4.10;;
17650;SDS011;26663;59.302;18.082;2024-02-28T01:31:15;4.53;;;4.33;;
17650;SDS011;26663;59.302;18.082;2024-02-28T01:34:19;3.97;;;3.87;;
17650;SDS011;26663;59.302;18.082;2024-02-28T01:37:24;4.23;;;4.03;;
17650;SDS011;26663;59.302;18.082;2024-02-28T01:40:27;4.57;;;4.33;;
17650;SDS011;26663;59.302;18.082;2024-02-28T01:43:33;4.03;;;3.93;;
17650;SDS011;26663;59.302;18.082;2024-02-28T01:46:36;4.30;;;4.10;;
17650;SDS011;26663;59.302;18.082;2024-02-28T01:49:40;4.63;;;4.33;;
17650;SDS011;26663;59.302;18.082;2024-02-28T01:52:45;4.63;;;4.40;;
17650;SDS011;26663;59.302;18.082;2024-02-28T01:55:49;4.40;;;4.20;;
17650;SDS011;26663;59.302;18.082;2024-02-28T01:58:55;4.03;;;3.93;;
17650;SDS011;26663;59.302;18.082;2024-02-28T02:02:00;4.77;;;4.47;;
17650;SDS011;26663;59.302;18.082;2024-02-28T02:05:04;3.83;;;3.63;;
17650;SDS011;26663;59.302;18.082;2024-02-28T02:08:08;4.63;;;4.43;;
17650;SDS011;26663;59.302;18.082;2024-02-28T02:11:12;4.20;;;4.00;;
17650;SDS011;26663;59.302;18.082;2024-02-28T02:14:18;4.27;;;4.07;;
17650;SDS011;26663;59.302;18.082;2024-02-28T02:17:22;4.73;;;4.43;;
17650;SDS011;26663;59.302;18.082;2024-02-28T02:20:26;4.03;;;3.83;;
17650;SDS011;26663;59.302;18.082;2024-02-28T02:23:35;4.27;;;3.97;;
17650;SDS011;26663;59.302;18.082;2024-02-28T02:26:43;4.20;;;4.00;;
17650;SDS011;26663;59.302;18.082;2024-02-28T02:29:48;4.20;;;4.00;;
17650;SDS011;26663;59.302;18.082;2024-02-28T02:32:52;4.67;;;3.87;;
17650;SDS011;26663;59.302;18.082;2024-02-28T02:35:56;4.13;;;3.67;;
17650;SDS011;26663;59.302;18.082;2024-02-28T02:39:01;3.70;;;3.60;;
17650;SDS011;26663;59.302;18.082;2024-02-28T02:42:05;3.80;;;3.50;;
17650;SDS011;26663;59.302;18.082;2024-02-28T02:45:09;3.60;;;3.50;;
17650;SDS011;26663;59.302;18.082;2024-02-28T02:48:13;3.67;;;3.57;;
17650;SDS011;26663;59.302;18.082;2024-02-28T02:51:18;3.67;;;3.47;;
17650;SDS011;26663;59.302;18.082;2024-02-28T02:54:24;3.87;;;3.37;;
17650;SDS011;26663;59.302;18.082;2024-02-28T02:57:28;3.50;;;3.20;;
17650;SDS011;26663;59.302;18.082;2024-02-28T03:00:33;3.63;;;3.43;;
17650;SDS011;26663;59.302;18.082;2024-02-28T03:03:37;3.37;;;3.27;;
17650;SDS011;26663;59.302;18.082;2024-02-28T03:06:41;3.60;;;3.40;;
17650;SDS011;26663;59.302;18.082;2024-02-28T03:09:46;3.27;;;3.17;;
17650;SDS011;26663;59.302;18.082;2024-02-28T03:12:50;3.07;;;2.97;;
17650;SDS011;26663;59.302;18.082;2024-02-28T03:15:54;3.70;;;3.60;;
17650;SDS011;26663;59.302;18.082;2024-02-28T03:18:58;3.03;;;2.93;;
17650;SDS011;26663;59.302;18.082;2024-02-28T03:22:02;3.23;;;2.93;;
17650;SDS011;26663;59.302;18.082;2024-02-28T03:25:08;2.93;;;2.93;;
17650;SDS011;26663;59.302;18.082;2024-02-28T03:28:12;3.30;;;3.20;;
17650;SDS011;26663;59.302;18.082;2024-02-28T03:31:16;3.10;;;3.00;;
17650;SDS011;26663;59.302;18.082;2024-02-28T03:34:20;3.10;;;3.00;;
17650;SDS011;26663;59.302;18.082;2024-02-28T03:37:24;3.37;;;3.10;;
17650;SDS011;26663;59.302;18.082;2024-02-28T03:40:29;3.23;;;3.03;;
17650;SDS011;26663;59.302;18.082;2024-02-28T03:43:33;3.17;;;2.97;;
17650;SDS011;26663;59.302;18.082;2024-02-28T03:46:37;2.77;;;2.77;;
17650;SDS011;26663;59.302;18.082;2024-02-28T03:49:40;3.40;;;3.17;;
17650;SDS011;26663;59.302;18.082;2024-02-28T03:52:44;3.10;;;3.00;;
17650;SDS011;26663;59.302;18.082;2024-02-28T03:55:51;2.90;;;2.80;;
17650;SDS011;26663;59.302;18.082;2024-02-28T03:58:55;2.87;;;2.77;;
17650;SDS011;26663;59.302;18.082;2024-02-28T04:01:59;3.10;;;3.07;;
17650;SDS011;26663;59.302;18.082;2024-02-28T04:05:03;2.70;;;2.70;;
17650;SDS011;26663;59.302;18.082;2024-02-28T04:08:08;3.00;;;2.90;;
17650;SDS011;26663;59.302;18.082;2024-02-28T04:11:13;2.70;;;2.70;;
17650;SDS011;26663;59.302;18.082;2024-02-28T04:14:17;3.10;;;3.00;;
17650;SDS011;26663;59.302;18.082;2024-02-28T04:17:21;2.93;;;2.90;;
17650;SDS011;26663;59.302;18.082;2024-02-28T04:20:25;3.80;;;3.50;;
17650;SDS011;26663;59.302;18.082;2024-02-28T04:23:28;3.70;;;3.50;;
17650;SDS011;26663;59.302;18.082;2024-02-28T04:26:34;3.20;;;3.10;;
17650;SDS011;26663;59.302;18.082;2024-02-28T04:29:38;3.70;;;3.60;;
17650;SDS011;26663;59.302;18.082;2024-02-28T04:32:42;3.33;;;3.23;;
17650;SDS011;26663;59.302;18.082;2024-02-28T04:35:45;3.67;;;3.57;;
17650;SDS011;26663;59.302;18.082;2024-02-28T04:38:49;3.07;;;2.97;;
17650;SDS011;26663;59.302;18.082;2024-02-28T04:41:54;3.50;;;3.40;;
17650;SDS011;26663;59.302;18.082;2024-02-28T04:44:59;3.37;;;3.27;;
17650;SDS011;26663;59.302;18.082;2024-02-28T04:48:03;3.40;;;3.23;;
17650;SDS011;26663;59.302;18.082;2024-02-28T04:51:08;3.37;;;3.27;;
17650;SDS011;26663;59.302;18.082;2024-02-28T04:54:12;3.17;;;3.07;;
17650;SDS011;26663;59.302;18.082;2024-02-28T04:57:18;3.60;;;3.40;;
17650;SDS011;26663;59.302;18.082;2024-02-28T05:00:21;3.33;;;3.13;;
17650;SDS011;26663;59.302;18.082;2024-02-28T05:03:25;3.53;;;3.40;;
17650;SDS011;26663;59.302;18.082;2024-02-28T05:06:29;3.57;;;3.47;;
17650;SDS011;26663;59.302;18.082;2024-02-28T05:09:33;3.30;;;3.20;;
17650;SDS011;26663;59.302;18.082;2024-02-28T05:12:39;3.70;;;3.50;;
17650;SDS011;26663;59.302;18.082;2024-02-28T05:15:43;3.60;;;3.50;;
17650;SDS011;26663;59.302;18.082;2024-02-28T05:18:47;3.70;;;3.60;;
17650;SDS011;26663;59.302;18.082;2024-02-28T05:21:51;4.20;;;4.00;;
17650;SDS011;26663;59.302;18.082;2024-02-28T05:24:55;3.53;;;3.43;;
17650;SDS011;26663;59.302;18.082;2024-02-28T05:28:00;4.00;;;3.80;;
17650;SDS011;26663;59.302;18.082;2024-02-28T05:34:25;4.30;;;4.10;;
17650;SDS011;26663;59.302;18.082;2024-02-28T05:37:28;4.30;;;4.00;;
17650;SDS011;26663;59.302;18.082;2024-02-28T05:40:32;4.00;;;3.80;;
17650;SDS011;26663;59.302;18.082;2024-02-28T05:43:37;8.20;;;3.97;;
17650;SDS011;26663;59.302;18.082;2024-02-28T05:46:42;3.33;;;3.27;;
17650;SDS011;26663;59.302;18.082;2024-02-28T05:49:45;3.83;;;3.73;;
17650;SDS011;26663;59.302;18.082;2024-02-28T05:52:49;4.03;;;3.83;;
17650;SDS011;26663;59.302;18.082;2024-02-28T05:55:53;3.73;;;3.50;;
17650;SDS011;26663;59.302;18.082;2024-02-28T05:59:00;4.10;;;3.90;;
17650;SDS011;26663;59.302;18.082;2024-02-28T06:02:04;4.13;;;3.83;;
17650;SDS011;26663;59.302;18.082;2024-02-28T06:05:08;4.17;;;3.87;;
17650;SDS011;26663;59.302;18.082;2024-02-28T06:08:13;3.77;;;3.57;;
17650;SDS011;26663;59.302;18.082;2024-02-28T06:11:17;4.03;;;3.80;;
17650;SDS011;26663;59.302;18.082;2024-02-28T06:14:22;4.30;;;4.10;;
17650;SDS011;26663;59.302;18.082;2024-02-28T06:17:26;4.27;;;3.83;;
17650;SDS011;26663;59.302;18.082;2024-02-28T06:20:30;4.10;;;3.90;;
17650;SDS011;26663;59.302;18.082;2024-02-28T06:23:34;4.40;;;4.10;;
17650;SDS011;26663;59.302;18.082;2024-02-28T06:26:38;4.33;;;4.13;;
17650;SDS011;26663;59.302;18.082;2024-02-28T06:29:45;4.50;;;4.20;;
17650;SDS011;26663;59.302;18.082;2024-02-28T06:32:50;4.63;;;4.33;;
17650;SDS011;26663;59.302;18.082;2024-02-28T06:35:53;4.43;;;4.13;;
17650;SDS011;26663;59.302;18.082;2024-02-28T06:38:59;4.43;;;4.10;;
17650;SDS011;26663;59.302;18.082;2024-02-28T06:42:03;4.47;;;4.00;;
17650;SDS011;26663;59.302;18.082;2024-02-28T06:45:09;4.17;;;3.97;;
17650;SDS011;26663;59.302;18.082;2024-02-28T06:48:13;5.27;;;4.43;;
17650;SDS011;26663;59.302;18.082;2024-02-28T06:51:17;4.47;;;4.17;;
17650;SDS011;26663;59.302;18.082;2024-02-28T06:54:21;4.47;;;4.27;;
17650;SDS011;26663;59.302;18.082;2024-02-28T06:57:25;4.63;;;4.27;;
17650;SDS011;26663;59.302;18.082;2024-02-28T07:00:30;4.40;;;4.00;;
17650;SDS011;26663;59.302;18.082;2024-02-28T07:03:34;4.10;;;3.80;;
17650;SDS011;26663;59.302;18.082;2024-02-28T07:06:39;3.90;;;3.70;;
17650;SDS011;26663;59.302;18.082;2024-02-28T07:09:42;4.07;;;3.97;;
17650;SDS011;26663;59.302;18.082;2024-02-28T07:12:46;3.57;;;3.47;;
17650;SDS011;26663;59.302;18.082;2024-02-28T07:15:51;3.50;;;3.30;;
17650;SDS011;26663;59.302;18.082;2024-02-28T07:18:57;3.67;;;3.50;;
17650;SDS011;26663;59.302;18.082;2024-02-28T07:22:01;3.57;;;3.47;;
17650;SDS011;26663;59.302;18.082;2024-02-28T07:25:06;4.65;;;4.28;;
17650;SDS011;26663;59.302;18.082;2024-02-28T07:28:10;3.50;;;3.33;;
17650;SDS011;26663;59.302;18.082;2024-02-28T07:31:16;3.90;;;3.60;;
17650;SDS011;26663;59.302;18.082;2024-02-28T07:34:21;3.50;;;3.20;;
17650;SDS011;26663;59.302;18.082;2024-02-28T07:37:25;3.77;;;3.37;;
17650;SDS011;26663;59.302;18.082;2024-02-28T07:40:28;3.07;;;2.97;;
17650;SDS011;26663;59.302;18.082;2024-02-28T07:43:32;3.57;;;3.30;;
17650;SDS011;26663;59.302;18.082;2024-02-28T07:46:42;3.40;;;3.27;;
17650;SDS011;26663;59.302;18.082;2024-02-28T07:49:47;3.70;;;3.50;;
17650;SDS011;26663;59.302;18.082;2024-02-28T07:52:50;3.97;;;3.67;;
17650;SDS011;26663;59.302;18.082;2024-02-28T07:55:57;3.10;;;3.00;;
17650;SDS011;26663;59.302;18.082;2024-02-28T07:59:01;4.70;;;3.13;;
17650;SDS011;26663;59.302;18.082;2024-02-28T08:02:07;3.60;;;3.40;;
17650;SDS011;26663;59.302;18.082;2024-02-28T08:05:12;4.60;;;3.27;;
17650;SDS011;26663;59.302;18.082;2024-02-28T08:08:17;3.43;;;3.20;;
17650;SDS011;26663;59.302;18.082;2024-02-28T08:11:20;4.30;;;3.50;;
17650;SDS011;26663;59.302;18.082;2024-02-28T08:14:26;3.10;;;3.00;;
17650;SDS011;26663;59.302;18.082;2024-02-28T08:17:31;2.87;;;2.87;;
17650;SDS011;26663;59.302;18.082;2024-02-28T08:20:36;2.83;;;2.77;;
17650;SDS011;26663;59.302;18.082;2024-02-28T08:23:39;3.97;;;3.20;;
17650;SDS011;26663;59.302;18.082;2024-02-28T08:26:43;3.07;;;2.90;;
17650;SDS011;26663;59.302;18.082;2024-02-28T08:29:47;2.87;;;2.77;;
17650;SDS011;26663;59.302;18.082;2024-02-28T08:32:53;2.83;;;2.77;;
17650;SDS011;26663;59.302;18.082;2024-02-28T08:35:57;2.73;;;2.70;;
17650;SDS011;26663;59.302;18.082;2024-02-28T08:39:01;3.40;;;3.30;;
17650;SDS011;26663;59.302;18.082;2024-02-28T08:42:06;5.50;;;3.10;;
17650;SDS011;26663;59.302;18.082;2024-02-28T08:45:10;3.40;;;3.10;;
17650;SDS011;26663;59.302;18.082;2024-02-28T08:48:16;3.73;;;2.67;;
17650;SDS011;26663;59.302;18.082;2024-02-28T08:51:20;3.93;;;2.70;;
17650;SDS011;26663;59.302;18.082;2024-02-28T08:54:24;4.97;;;2.60;;
17650;SDS011;26663;59.302;18.082;2024-02-28T08:57:28;2.83;;;2.70;;
17650;SDS011;26663;59.302;18.082;2024-02-28T09:00:32;2.90;;;2.70;;
17650;SDS011;26663;59.302;18.082;2024-02-28T09:03:38;3.23;;;3.03;;
17650;SDS011;26663;59.302;18.082;2024-02-28T09:06:42;4.20;;;3.43;;
17650;SDS011;26663;59.302;18.082;2024-02-28T09:09:46;3.03;;;2.77;;
17650;SDS011;26663;59.302;18.082;2024-02-28T09:12:51;4.97;;;3.00;;
17650;SDS011;26663;59.302;18.082;2024-02-28T09:15:55;3.33;;;3.20;;
17650;SDS011;26663;59.302;18.082;2024-02-28T09:19:01;3.73;;;3.10;;
17650;SDS011;26663;59.302;18.082;2024-02-28T09:22:06;2.93;;;2.80;;
17650;SDS011;26663;59.302;18.082;2024-02-28T09:25:10;3.30;;;3.00;;
17650;SDS011;26663;59.302;18.082;2024-02-28T09:28:14;4.77;;;2.43;;
17650;SDS011;26663;59.302;18.082;2024-02-28T09:31:18;2.97;;;2.77;;
17650;SDS011;26663;59.302;18.082;2024-02-28T09:34:23;3.60;;;2.73;;
17650;SDS011;26663;59.302;18.082;2024-02-28T09:37:27;2.70;;;2.50;;
17650;SDS011;26663;59.302;18.082;2024-02-28T09:40:31;2.73;;;2.53;;
17650;SDS011;26663;59.302;18.082;2024-02-28T09:43:36;2.83;;;2.63;;
17650;SDS011;26663;59.302;18.082;2024-02-28T09:46:44;2.70;;;2.60;;
17650;SDS011;26663;59.302;18.082;2024-02-28T09:49:50;3.73;;;2.80;;
17650;SDS011;26663;59.302;18.082;2024-02-28T09:52:55;4.87;;;3.07;;
17650;SDS011;26663;59.302;18.082;2024-02-28T09:56:11;3.10;;;2.90;;
17650;SDS011;26663;59.302;18.082;2024-02-28T09:59:15;3.03;;;2.93;;
17650;SDS011;26663;59.302;18.082;2024-02-28T10:02:19;3.57;;;3.30;;
17650;SDS011;26663;59.302;18.082;2024-02-28T10:05:25;3.70;;;3.10;;
17650;SDS011;26663;59.302;18.082;2024-02-28T10:08:31;4.07;;;3.20;;
17650;SDS011;26663;59.302;18.082;2024-02-28T10:11:37;3.20;;;3.00;;
17650;SDS011;26663;59.302;18.082;2024-02-28T10:14:44;3.40;;;3.10;;
17650;SDS011;26663;59.302;18.082;2024-02-28T10:17:48;2.90;;;2.80;;
17650;SDS011;26663;59.302;18.082;2024-02-28T10:20:53;4.57;;;3.40;;
17650;SDS011;26663;59.302;18.082;2024-02-28T10:23:57;5.27;;;3.77;;
17650;SDS011;26663;59.302;18.082;2024-02-28T10:27:06;8.67;;;2.97;;
17650;SDS011;26663;59.302;18.082;2024-02-28T10:30:10;2.87;;;2.70;;
17650;SDS011;26663;59.302;18.082;2024-02-28T10:33:14;4.47;;;3.30;;
17650;SDS011;26663;59.302;18.082;2024-02-28T10:36:20;3.00;;;2.80;;
17650;SDS011;26663;59.302;18.082;2024-02-28T10:39:26;4.20;;;3.90;;
17650;SDS011;26663;59.302;18.082;2024-02-28T10:42:30;7.80;;;3.30;;
17650;SDS011;26663;59.302;18.082;2024-02-28T10:45:35;6.70;;;3.37;;
17650;SDS011;26663;59.302;18.082;2024-02-28T10:49:00;3.33;;;3.03;;
17650;SDS011;26663;59.302;18.082;2024-02-28T10:52:06;3.03;;;2.83;;
17650;SDS011;26663;59.302;18.082;2024-02-28T10:55:12;4.17;;;2.50;;
17650;SDS011;26663;59.302;18.082;2024-02-28T10:58:19;4.67;;;2.67;;
17650;SDS011;26663;59.302;18.082;2024-02-28T11:01:26;3.07;;;2.70;;
17650;SDS011;26663;59.302;18.082;2024-02-28T11:04:30;2.90;;;2.70;;
17650;SDS011;26663;59.302;18.082;2024-02-28T11:07:35;3.67;;;2.27;;
17650;SDS011;26663;59.302;18.082;2024-02-28T11:10:42;2.67;;;2.57;;
17650;SDS011;26663;59.302;18.082;2024-02-28T11:13:51;3.97;;;2.37;;
17650;SDS011;26663;59.302;18.082;2024-02-28T11:16:59;2.70;;;2.57;;
17650;SDS011;26663;59.302;18.082;2024-02-28T11:20:11;9.93;;;3.27;;
17650;SDS011;26663;59.302;18.082;2024-02-28T11:23:18;5.03;;;3.00;;
17650;SDS011;26663;59.302;18.082;2024-02-28T11:26:21;3.50;;;2.70;;
17650;SDS011;26663;59.302;18.082;2024-02-28T11:29:27;8.07;;;2.80;;
17650;SDS011;26663;59.302;18.082;2024-02-28T11:32:32;3.10;;;3.00;;
17650;SDS011;26663;59.302;18.082;2024-02-28T11:35:35;2.87;;;2.40;;
17650;SDS011;26663;59.302;18.082;2024-02-28T11:38:42;2.70;;;2.60;;
17650;SDS011;26663;59.302;18.082;2024-02-28T11:41:45;3.70;;;2.70;;
17650;SDS011;26663;59.302;18.082;2024-02-28T11:44:53;7.53;;;2.70;;
17650;SDS011;26663;59.302;18.082;2024-02-28T11:48:02;6.83;;;3.50;;
17650;SDS011;26663;59.302;18.082;2024-02-28T11:51:06;4.57;;;3.30;;
17650;SDS011;26663;59.302;18.082;2024-02-28T11:54:12;9.27;;;3.43;;
17650;SDS011;26663;59.302;18.082;2024-02-28T11:57:16;7.20;;;3.40;;
17650;SDS011;26663;59.302;18.082;2024-02-28T12:00:20;4.30;;;2.90;;
17650;SDS011;26663;59.302;18.082;2024-02-28T12:03:25;7.87;;;3.50;;
17650;SDS011;26663;59.302;18.082;2024-02-28T12:06:29;9.57;;;3.60;;
17650;SDS011;26663;59.302;18.082;2024-02-28T12:09:34;3.53;;;3.27;;
17650;SDS011;26663;59.302;18.082;2024-02-28T12:12:44;3.27;;;3.07;;
17650;SDS011;26663;59.302;18.082;2024-02-28T12:15:48;3.77;;;3.47;;
17650;SDS011;26663;59.302;18.082;2024-02-28T12:18:52;19.93;;;3.20;;
17650;SDS011;26663;59.302;18.082;2024-02-28T12:21:56;4.87;;;3.60;;
17650;SDS011;26663;59.302;18.082;2024-02-28T12:25:02;3.50;;;3.30;;
17650;SDS011;26663;59.302;18.082;2024-02-28T12:28:09;9.70;;;3.70;;
17650;SDS011;26663;59.302;18.082;2024-02-28T12:31:13;6.93;;;3.03;;
17650;SDS011;26663;59.302;18.082;2024-02-28T12:34:18;7.47;;;3.30;;
17650;SDS011;26663;59.302;18.082;2024-02-28T12:37:21;4.90;;;3.17;;
17650;SDS011;26663;59.302;18.082;2024-02-28T12:40:27;7.37;;;3.17;;
17650;SDS011;26663;59.302;18.082;2024-02-28T12:43:30;5.53;;;3.87;;
17650;SDS011;26663;59.302;18.082;2024-02-28T12:46:35;4.87;;;3.70;;
17650;SDS011;26663;59.302;18.082;2024-02-28T12:49:39;7.93;;;3.60;;
17650;SDS011;26663;59.302;18.082;2024-02-28T12:52:43;11.40;;;3.93;;
17650;SDS011;26663;59.302;18.082;2024-02-28T12:55:48;3.57;;;3.47;;
17650;SDS011;26663;59.302;18.082;2024-02-28T12:58:52;10.03;;;3.67;;
17650;SDS011;26663;59.302;18.082;2024-02-28T13:01:56;5.27;;;3.57;;
17650;SDS011;26663;59.302;18.082;2024-02-28T13:05:00;7.60;;;3.73;;
17650;SDS011;26663;59.302;18.082;2024-02-28T13:08:05;7.93;;;3.90;;
17650;SDS011;26663;59.302;18.082;2024-02-28T13:11:10;5.03;;;3.53;;
17650;SDS011;26663;59.302;18.082;2024-02-28T13:14:14;6.17;;;3.50;;
17650;SDS011;26663;59.302;18.082;2024-02-28T13:17:18;7.23;;;3.53;;
17650;SDS011;26663;59.302;18.082;2024-02-28T13:20:22;8.07;;;3.20;;
17650;SDS011;26663;59.302;18.082;2024-02-28T13:23:26;9.33;;;3.67;;
17650;SDS011;26663;59.302;18.082;2024-02-28T13:26:32;7.17;;;3.60;;
17650;SDS011;26663;59.302;18.082;2024-02-28T13:29:36;5.90;;;3.60;;
17650;SDS011;26663;59.302;18.082;2024-02-28T13:32:39;3.67;;;3.37;;
17650;SDS011;26663;59.302;18.082;2024-02-28T13:35:43;3.70;;;3.40;;
17650;SDS011;26663;59.302;18.082;2024-02-28T13:38:47;5.27;;;2.93;;
17650;SDS011;26663;59.302;18.082;2024-02-28T13:41:52;8.20;;;3.03;;
17650;SDS011;26663;59.302;18.082;2024-02-28T13:44:57;5.43;;;3.57;;
17650;SDS011;26663;59.302;18.082;2024-02-28T13:48:01;5.63;;;3.03;;
17650;SDS011;26663;59.302;18.082;2024-02-28T13:51:06;3.97;;;3.00;;
17650;SDS011;26663;59.302;18.082;2024-02-28T13:54:10;3.93;;;3.33;;
17650;SDS011;26663;59.302;18.082;2024-02-28T13:57:15;20.30;;;3.50;;
17650;SDS011;26663;59.302;18.082;2024-02-28T14:00:19;2.80;;;2.70;;
17650;SDS011;26663;59.302;18.082;2024-02-28T14:03:23;3.30;;;2.77;;
17650;SDS011;26663;59.302;18.082;2024-02-28T14:06:27;6.13;;;2.77;;
17650;SDS011;26663;59.302;18.082;2024-02-28T14:09:31;4.10;;;2.83;;
17650;SDS011;26663;59.302;18.082;2024-02-28T14:12:36;5.77;;;2.63;;
17650;SDS011;26663;59.302;18.082;2024-02-28T14:15:40;9.88;;;2.80;;
17650;SDS011;26663;59.302;18.082;2024-02-28T14:18:45;2.40;;;2.30;;
17650;SDS011;26663;59.302;18.082;2024-02-28T14:21:48;4.03;;;2.40;;
17650;SDS011;26663;59.302;18.082;2024-02-28T14:24:53;2.50;;;2.40;;
17650;SDS011;26663;59.302;18.082;2024-02-28T14:27:59;7.67;;;2.40;;
17650;SDS011;26663;59.302;18.082;2024-02-28T14:31:04;2.87;;;2.57;;
17650;SDS011;26663;59.302;18.082;2024-02-28T14:34:08;7.47;;;2.10;;
17650;SDS011;26663;59.302;18.082;2024-02-28T14:37:12;5.07;;;2.40;;
17650;SDS011;26663;59.302;18.082;2024-02-28T14:40:16;6.33;;;2.20;;
17650;SDS011;26663;59.302;18.082;2024-02-28T14:43:21;5.10;;;2.40;;
17650;SDS011;26663;59.302;18.082;2024-02-28T14:46:25;2.17;;;2.00;;
17650;SDS011;26663;59.302;18.082;2024-02-28T14:49:29;2.50;;;2.10;;
17650;SDS011;26663;59.302;18.082;2024-02-28T14:52:33;5.10;;;2.70;;
17650;SDS011;26663;59.302;18.082;2024-02-28T14:55:37;2.60;;;2.20;;
17650;SDS011;26663;59.302;18.082;2024-02-28T14:58:42;6.83;;;2.17;;
17650;SDS011;26663;59.302;18.082;2024-02-28T15:01:47;4.80;;;2.37;;
17650;SDS011;26663;59.302;18.082;2024-02-28T15:04:51;2.17;;;2.17;;
17650;SDS011;26663;59.302;18.082;2024-02-28T15:07:55;4.57;;;2.13;;
17650;SDS011;26663;59.302;18.082;2024-02-28T15:10:59;3.33;;;2.40;;
17650;SDS011;26663;59.302;18.082;2024-02-28T15:14:04;2.30;;;2.20;;
17650;SDS011;26663;59.302;18.082;2024-02-28T15:17:08;3.07;;;2.37;;
17650;SDS011;26663;59.302;18.082;2024-02-28T15:20:12;5.70;;;2.50;;
17650;SDS011;26663;59.302;18.082;2024-02-28T15:23:16;2.57;;;2.40;;
17650;SDS011;26663;59.302;18.082;2024-02-28T15:26:20;3.00;;;2.57;;
17650;SDS011;26663;59.302;18.082;2024-02-28T15:29:38;6.43;;;2.67;;
17650;SDS011;26663;59.302;18.082;2024-02-28T15:32:43;6.67;;;2.33;;
17650;SDS011;26663;59.302;18.082;2024-02-28T15:35:47;2.70;;;2.60;;
17650;SDS011;26663;59.302;18.082;2024-02-28T15:38:52;5.53;;;2.67;;
17650;SDS011;26663;59.302;18.082;2024-02-28T15:41:55;2.60;;;2.50;;
17650;SDS011;26663;59.302;18.082;2024-02-28T15:45:01;3.27;;;2.43;;
17650;SDS011;26663;59.302;18.082;2024-02-28T15:48:05;2.83;;;2.63;;
17650;SDS011;26663;59.302;18.082;2024-02-28T15:51:10;4.30;;;2.60;;
17650;SDS011;26663;59.302;18.082;2024-02-28T15:54:14;3.30;;;3.00;;
17650;SDS011;26663;59.302;18.082;2024-02-28T15:57:19;4.30;;;3.03;;
17650;SDS011;26663;59.302;18.082;2024-02-28T16:00:24;3.10;;;2.83;;
17650;SDS011;26663;59.302;18.082;2024-02-28T16:03:28;2.70;;;2.50;;
17650;SDS011;26663;59.302;18.082;2024-02-28T16:06:32;6.23;;;3.03;;
17650;SDS011;26663;59.302;18.082;2024-02-28T16:09:41;6.60;;;2.77;;
17650;SDS011;26663;59.302;18.082;2024-02-28T16:12:48;3.50;;;3.00;;
17650;SDS011;26663;59.302;18.082;2024-02-28T16:15:54;2.70;;;2.53;;
17650;SDS011;26663;59.302;18.082;2024-02-28T16:18:58;3.10;;;3.00;;
17650;SDS011;26663;59.302;18.082;2024-02-28T16:22:08;2.97;;;2.77;;
17650;SDS011;26663;59.302;18.082;2024-02-28T16:25:12;7.03;;;3.07;;
17650;SDS011;26663;59.302;18.082;2024-02-28T16:28:16;5.03;;;2.63;;
17650;SDS011;26663;59.302;18.082;2024-02-28T16:31:21;3.20;;;3.00;;
17650;SDS011;26663;59.302;18.082;2024-02-28T16:34:26;2.93;;;2.70;;
17650;SDS011;26663;59.302;18.082;2024-02-28T16:37:29;3.00;;;2.90;;
17650;SDS011;26663;59.302;18.082;2024-02-28T16:40:34;3.13;;;2.97;;
17650;SDS011;26663;59.302;18.082;2024-02-28T16:43:38;4.10;;;2.90;;
17650;SDS011;26663;59.302;18.082;2024-02-28T16:46:44;4.93;;;3.27;;
17650;SDS011;26663;59.302;18.082;2024-02-28T16:49:47;7.28;;;4.07;;
17650;SDS011;26663;59.302;18.082;2024-02-28T16:52:51;4.57;;;3.37;;
17650;SDS011;26663;59.302;18.082;2024-02-28T16:55:55;6.03;;;4.00;;
17650;SDS011;26663;59.302;18.082;2024-02-28T16:59:00;6.17;;;3.43;;
17650;SDS011;26663;59.302;18.082;2024-02-28T17:02:05;4.23;;;3.63;;
17650;SDS011;26663;59.302;18.082;2024-02-28T17:05:09;5.67;;;3.40;;
17650;SDS011;26663;59.302;18.082;2024-02-28T17:08:15;3.30;;;3.20;;
17650;SDS011;26663;59.302;18.082;2024-02-28T17:11:19;4.17;;;3.33;;
17650;SDS011;26663;59.302;18.082;2024-02-28T17:14:23;3.27;;;3.17;;
17650;SDS011;26663;59.302;18.082;2024-02-28T17:17:29;4.17;;;3.80;;
17650;SDS011;26663;59.302;18.082;2024-02-28T17:20:33;4.23;;;3.93;;
17650;SDS011;26663;59.302;18.082;2024-02-28T17:23:37;3.60;;;3.37;;
17650;SDS011;26663;59.302;18.082;2024-02-28T17:26:41;12.10;;;3.87;;
17650;SDS011;26663;59.302;18.082;2024-02-28T17:29:45;5.13;;;3.73;;
17650;SDS011;26663;59.302;18.082;2024-02-28T17:32:51;7.40;;;4.73;;
17650;SDS011;26663;59.302;18.082;2024-02-28T17:35:55;7.00;;;4.40;;
17650;SDS011;26663;59.302;18.082;2024-02-28T17:38:59;4.90;;;3.77;;
17650;SDS011;26663;59.302;18.082;2024-02-28T17:42:05;9.03;;;4.30;;
17650;SDS011;26663;59.302;18.082;2024-02-28T17:45:09;7.83;;;4.30;;
17650;SDS011;26663;59.302;18.082;2024-02-28T17:48:15;11.00;;;5.27;;
17650;SDS011;26663;59.302;18.082;2024-02-28T17:51:19;14.37;;;7.07;;
17650;SDS011;26663;59.302;18.082;2024-02-28T17:54:23;10.00;;;5.67;;
17650;SDS011;26663;59.302;18.082;2024-02-28T17:57:27;10.43;;;5.30;;
17650;SDS011;26663;59.302;18.082;2024-02-28T18:00:34;8.63;;;5.00;;
17650;SDS011;26663;59.302;18.082;2024-02-28T18:03:40;9.80;;;4.53;;
17650;SDS011;26663;59.302;18.082;2024-02-28T18:06:45;3.60;;;3.50;;
17650;SDS011;26663;59.302;18.082;2024-02-28T18:09:49;6.70;;;4.20;;
17650;SDS011;26663;59.302;18.082;2024-02-28T18:12:53;7.83;;;5.30;;
17650;SDS011;26663;59.302;18.082;2024-02-28T18:15:57;12.20;;;6.60;;
17650;SDS011;26663;59.302;18.082;2024-02-28T18:19:02;16.23;;;6.57;;
17650;SDS011;26663;59.302;18.082;2024-02-28T18:22:06;7.33;;;5.23;;
17650;SDS011;26663;59.302;18.082;2024-02-28T18:25:11;8.60;;;5.43;;
17650;SDS011;26663;59.302;18.082;2024-02-28T18:28:15;10.37;;;6.37;;
17650;SDS011;26663;59.302;18.082;2024-02-28T18:31:19;14.40;;;6.37;;
17650;SDS011;26663;59.302;18.082;2024-02-28T18:34:24;9.50;;;5.87;;
17650;SDS011;26663;59.302;18.082;2024-02-28T18:37:28;9.83;;;5.10;;
17650;SDS011;26663;59.302;18.082;2024-02-28T18:40:34;9.90;;;5.37;;